sensor_id;sensor_type;location;lat;lon;timestamp;pressure;altitude;pressure_sealevel;temperature;humidity
50087;BME280;35967;50.718;7.050;2023-04-05T00:05:10;101543.34;;;4.84;57.27
50087;BME280;35967;50.718;7.050;2023-04-05T00:15:14;101529.00;;;4.92;57.22
50087;BME280;35967;50.718;7.050;2023-04-05T00:25:18;101524.44;;;4.72;59.21
50087;BME280;35967;50.718;7.050;2023-04-05T00:35:25;101521.25;;;4.86;57.82
50087;BME280;35967;50.718;7.050;2023-04-05T00:45:30;101511.88;;;4.85;57.59
50087;BME280;35967;50.718;7.050;2023-04-05T00:55:34;101515.03;;;4.68;59.49
50087;BME280;35967;50.718;7.050;2023-04-05T01:05:43;101513.19;;;4.61;58.95
50087;BME280;35967;50.718;7.050;2023-04-05T01:15:50;101506.94;;;4.40;61.19
50087;BME280;35967;50.718;7.050;2023-04-05T01:26:14;101496.72;;;4.94;59.26
50087;BME280;35967;50.718;7.050;2023-04-05T01:36:27;101483.56;;;4.66;59.39
50087;BME280;35967;50.718;7.050;2023-04-05T01:46:33;101490.69;;;4.87;59.40
50087;BME280;35967;50.718;7.050;2023-04-05T01:56:39;101483.78;;;4.82;57.80
50087;BME280;35967;50.718;7.050;2023-04-05T02:06:42;101479.72;;;4.41;60.16
50087;BME280;35967;50.718;7.050;2023-04-05T02:16:46;101470.59;;;4.54;58.80
50087;BME280;35967;50.718;7.050;2023-04-05T02:26:49;101475.38;;;4.34;61.89
50087;BME280;35967;50.718;7.050;2023-04-05T02:36:54;101471.97;;;4.33;62.61
50087;BME280;35967;50.718;7.050;2023-04-05T02:46:58;101461.34;;;4.07;63.13
50087;BME280;35967;50.718;7.050;2023-04-05T02:57:06;101460.72;;;4.20;62.09
50087;BME280;35967;50.718;7.050;2023-04-05T03:07:20;101467.16;;;4.01;63.41
50087;BME280;35967;50.718;7.050;2023-04-05T03:17:28;101467.97;;;3.99;63.36
50087;BME280;35967;50.718;7.050;2023-04-05T03:27:35;101467.72;;;3.85;63.76
50087;BME280;35967;50.718;7.050;2023-04-05T03:37:45;101465.56;;;3.60;62.24
50087;BME280;35967;50.718;7.050;2023-04-05T03:47:48;101459.47;;;3.52;62.82
50087;BME280;35967;50.718;7.050;2023-04-05T03:57:53;101452.41;;;3.39;62.10
50087;BME280;35967;50.718;7.050;2023-04-05T04:08:02;101451.44;;;3.34;64.27
50087;BME280;35967;50.718;7.050;2023-04-05T04:18:07;101441.78;;;3.17;64.62
50087;BME280;35967;50.718;7.050;2023-04-05T04:28:32;101449.78;;;2.94;62.55
50087;BME280;35967;50.718;7.050;2023-04-05T04:39:01;101456.28;;;2.83;65.21
50087;BME280;35967;50.718;7.050;2023-04-05T04:49:30;101448.50;;;2.75;65.60
50087;BME280;35967;50.718;7.050;2023-04-05T04:59:35;101453.31;;;2.28;67.98
50087;BME280;35967;50.718;7.050;2023-04-05T05:09:41;101460.34;;;2.75;65.93
50087;BME280;35967;50.718;7.050;2023-04-05T05:19:48;101466.09;;;2.66;67.06
50087;BME280;35967;50.718;7.050;2023-04-05T05:29:51;101462.09;;;2.77;65.74
50087;BME280;35967;50.718;7.050;2023-04-05T05:39:56;101458.66;;;3.13;72.69
50087;BME280;35967;50.718;7.050;2023-04-05T05:49:59;101444.56;;;3.29;69.60
50087;BME280;35967;50.718;7.050;2023-04-05T06:00:06;101450.66;;;3.38;67.40
50087;BME280;35967;50.718;7.050;2023-04-05T06:10:15;101462.66;;;3.43;68.19
50087;BME280;35967;50.718;7.050;2023-04-05T06:20:21;101454.59;;;3.63;67.63
50087;BME280;35967;50.718;7.050;2023-04-05T06:30:24;101464.38;;;3.44;66.24
50087;BME280;35967;50.718;7.050;2023-04-05T06:40:29;101451.63;;;3.86;65.23
50087;BME280;35967;50.718;7.050;2023-04-05T06:50:32;101444.19;;;4.49;64.06
50087;BME280;35967;50.718;7.050;2023-04-05T07:00:37;101448.16;;;4.86;64.32
50087;BME280;35967;50.718;7.050;2023-04-05T07:10:40;101442.31;;;5.67;60.10
50087;BME280;35967;50.718;7.050;2023-04-05T07:20:47;101434.44;;;5.46;60.59
50087;BME280;35967;50.718;7.050;2023-04-05T07:30:50;101418.75;;;5.95;57.28
50087;BME280;35967;50.718;7.050;2023-04-05T07:40:55;101428.69;;;6.62;53.81
50087;BME280;35967;50.718;7.050;2023-04-05T07:51:04;101426.19;;;6.72;52.13
50087;BME280;35967;50.718;7.050;2023-04-05T08:01:09;101423.78;;;6.97;49.71
50087;BME280;35967;50.718;7.050;2023-04-05T08:11:13;101406.75;;;7.06;50.27
50087;BME280;35967;50.718;7.050;2023-04-05T08:21:18;101401.84;;;7.67;47.97
50087;BME280;35967;50.718;7.050;2023-04-05T08:31:21;101403.56;;;7.94;48.04
50087;BME280;35967;50.718;7.050;2023-04-05T08:41:32;101397.59;;;8.06;47.76
50087;BME280;35967;50.718;7.050;2023-04-05T08:51:37;101399.31;;;8.18;46.19
50087;BME280;35967;50.718;7.050;2023-04-05T09:02:06;101400.19;;;8.03;45.47
50087;BME280;35967;50.718;7.050;2023-04-05T09:12:10;101389.84;;;8.83;44.57
50087;BME280;35967;50.718;7.050;2023-04-05T09:22:15;101388.91;;;8.98;44.64
50087;BME280;35967;50.718;7.050;2023-04-05T09:32:24;101387.06;;;9.35;43.04
50087;BME280;35967;50.718;7.050;2023-04-05T09:42:41;101378.34;;;9.60;42.34
50087;BME280;35967;50.718;7.050;2023-04-05T09:52:45;101369.13;;;9.24;41.37
50087;BME280;35967;50.718;7.050;2023-04-05T10:02:54;101357.06;;;9.38;40.91
50087;BME280;35967;50.718;7.050;2023-04-05T10:12:57;101347.78;;;10.27;47.06
50087;BME280;35967;50.718;7.050;2023-04-05T10:23:06;101342.41;;;10.55;40.70
50087;BME280;35967;50.718;7.050;2023-04-05T10:33:17;101339.00;;;10.50;39.02
50087;BME280;35967;50.718;7.050;2023-04-05T10:43:24;101333.38;;;10.13;37.20
50087;BME280;35967;50.718;7.050;2023-04-05T10:53:29;101310.84;;;11.08;36.34
50087;BME280;35967;50.718;7.050;2023-04-05T11:03:44;101304.84;;;11.08;37.00
50087;BME280;35967;50.718;7.050;2023-04-05T11:13:50;101299.78;;;11.00;34.93
50087;BME280;35967;50.718;7.050;2023-04-05T11:24:02;101290.34;;;11.00;35.51
50087;BME280;35967;50.718;7.050;2023-04-05T11:34:07;101290.56;;;10.85;34.49
50087;BME280;35967;50.718;7.050;2023-04-05T11:44:13;101279.69;;;11.25;34.65
50087;BME280;35967;50.718;7.050;2023-04-05T11:54:27;101268.41;;;11.86;35.82
50087;BME280;35967;50.718;7.050;2023-04-05T12:04:33;101258.81;;;11.92;34.12
50087;BME280;35967;50.718;7.050;2023-04-05T12:14:37;101249.72;;;11.73;34.79
50087;BME280;35967;50.718;7.050;2023-04-05T12:24:42;101249.78;;;12.18;35.17
50087;BME280;35967;50.718;7.050;2023-04-05T12:34:46;101235.31;;;12.52;32.83
50087;BME280;35967;50.718;7.050;2023-04-05T12:45:02;101224.56;;;12.72;32.10
50087;BME280;35967;50.718;7.050;2023-04-05T12:55:14;101212.63;;;12.68;34.72
50087;BME280;35967;50.718;7.050;2023-04-05T13:05:21;101213.47;;;13.06;36.40
50087;BME280;35967;50.718;7.050;2023-04-05T13:15:24;101206.91;;;12.92;34.53
50087;BME280;35967;50.718;7.050;2023-04-05T13:25:29;101189.47;;;12.63;34.95
50087;BME280;35967;50.718;7.050;2023-04-05T13:35:32;101178.69;;;12.83;34.49
50087;BME280;35967;50.718;7.050;2023-04-05T13:45:36;101168.19;;;12.89;33.63
50087;BME280;35967;50.718;7.050;2023-04-05T13:55:40;101162.72;;;13.03;32.81
50087;BME280;35967;50.718;7.050;2023-04-05T14:12:24;101141.41;;;12.93;33.49
50087;BME280;35967;50.718;7.050;2023-04-05T14:22:27;101137.59;;;12.72;34.56
50087;BME280;35967;50.718;7.050;2023-04-05T14:32:32;101125.66;;;12.29;31.88
50087;BME280;35967;50.718;7.050;2023-04-05T14:42:35;101103.34;;;12.26;29.76
50087;BME280;35967;50.718;7.050;2023-04-05T14:52:52;101089.56;;;12.26;28.87
50087;BME280;35967;50.718;7.050;2023-04-05T15:02:56;101086.44;;;12.13;31.14
50087;BME280;35967;50.718;7.050;2023-04-05T15:13:01;101079.97;;;12.33;31.06
50087;BME280;35967;50.718;7.050;2023-04-05T15:23:04;101078.03;;;12.03;32.71
50087;BME280;35967;50.718;7.050;2023-04-05T15:33:09;101069.88;;;11.79;31.73
50087;BME280;35967;50.718;7.050;2023-04-05T15:43:12;101071.63;;;11.79;31.11
50087;BME280;35967;50.718;7.050;2023-04-05T15:53:16;101069.06;;;11.79;30.94
50087;BME280;35967;50.718;7.050;2023-04-05T16:03:20;101056.38;;;11.68;31.35
50087;BME280;35967;50.718;7.050;2023-04-05T16:13:24;101052.09;;;11.67;32.55
50087;BME280;35967;50.718;7.050;2023-04-05T16:23:27;101043.41;;;11.73;34.05
50087;BME280;35967;50.718;7.050;2023-04-05T16:33:32;101042.69;;;11.64;33.28
50087;BME280;35967;50.718;7.050;2023-04-05T16:43:35;101038.78;;;11.45;32.88
50087;BME280;35967;50.718;7.050;2023-04-05T16:53:40;101040.34;;;11.52;33.92
50087;BME280;35967;50.718;7.050;2023-04-05T17:03:43;101042.41;;;11.34;33.28
50087;BME280;35967;50.718;7.050;2023-04-05T17:13:49;101038.94;;;11.35;33.83
50087;BME280;35967;50.718;7.050;2023-04-05T17:23:52;101044.34;;;11.23;34.20
50087;BME280;35967;50.718;7.050;2023-04-05T17:33:57;101040.13;;;11.19;37.14
50087;BME280;35967;50.718;7.050;2023-04-05T17:44:00;101045.34;;;11.16;36.16
50087;BME280;35967;50.718;7.050;2023-04-05T17:54:04;101044.84;;;10.97;36.67
50087;BME280;35967;50.718;7.050;2023-04-05T18:04:07;101043.25;;;10.88;36.31
50087;BME280;35967;50.718;7.050;2023-04-05T18:14:14;101045.22;;;10.73;36.47
50087;BME280;35967;50.718;7.050;2023-04-05T18:24:17;101058.31;;;10.61;37.09
50087;BME280;35967;50.718;7.050;2023-04-05T18:34:22;101074.78;;;10.49;37.69
50087;BME280;35967;50.718;7.050;2023-04-05T18:44:26;101075.81;;;10.34;39.13
50087;BME280;35967;50.718;7.050;2023-04-05T18:54:30;101082.09;;;10.13;39.59
50087;BME280;35967;50.718;7.050;2023-04-05T19:04:34;101091.59;;;10.09;40.68
50087;BME280;35967;50.718;7.050;2023-04-05T19:14:38;101098.44;;;10.10;40.88
50087;BME280;35967;50.718;7.050;2023-04-05T19:24:43;101100.94;;;10.17;48.40
50087;BME280;35967;50.718;7.050;2023-04-05T19:34:47;101098.66;;;9.92;42.40
50087;BME280;35967;50.718;7.050;2023-04-05T19:44:52;101104.97;;;9.68;43.09
50087;BME280;35967;50.718;7.050;2023-04-05T19:54:59;101102.47;;;9.60;42.77
50087;BME280;35967;50.718;7.050;2023-04-05T20:05:12;101108.13;;;9.07;43.33
50087;BME280;35967;50.718;7.050;2023-04-05T20:15:31;101106.56;;;8.88;44.24
50087;BME280;35967;50.718;7.050;2023-04-05T20:25:38;101104.94;;;8.74;45.19
50087;BME280;35967;50.718;7.050;2023-04-05T20:35:46;101111.09;;;8.53;45.59
50087;BME280;35967;50.718;7.050;2023-04-05T20:45:49;101103.47;;;8.36;46.88
50087;BME280;35967;50.718;7.050;2023-04-05T20:55:55;101096.63;;;8.32;47.36
50087;BME280;35967;50.718;7.050;2023-04-05T21:06:00;101090.78;;;8.07;48.46
50087;BME280;35967;50.718;7.050;2023-04-05T21:16:06;101079.63;;;8.17;49.78
50087;BME280;35967;50.718;7.050;2023-04-05T21:26:09;101078.91;;;7.82;51.14
50087;BME280;35967;50.718;7.050;2023-04-05T21:36:13;101079.84;;;7.63;52.03
50087;BME280;35967;50.718;7.050;2023-04-05T21:46:16;101074.72;;;7.60;51.08
50087;BME280;35967;50.718;7.050;2023-04-05T21:56:23;101071.38;;;7.44;50.68
50087;BME280;35967;50.718;7.050;2023-04-05T22:06:26;101073.97;;;7.05;54.53
50087;BME280;35967;50.718;7.050;2023-04-05T22:16:31;101062.88;;;7.12;54.47
50087;BME280;35967;50.718;7.050;2023-04-05T22:26:34;101058.53;;;6.06;56.73
50087;BME280;35967;50.718;7.050;2023-04-05T22:36:39;101055.88;;;5.90;58.27
50087;BME280;35967;50.718;7.050;2023-04-05T22:46:43;101058.63;;;6.52;56.10
50087;BME280;35967;50.718;7.050;2023-04-05T22:56:47;101054.31;;;6.22;55.35
50087;BME280;35967;50.718;7.050;2023-04-05T23:06:51;101042.41;;;6.36;56.67
50087;BME280;35967;50.718;7.050;2023-04-05T23:16:55;101038.09;;;6.15;57.03
50087;BME280;35967;50.718;7.050;2023-04-05T23:26:58;101041.25;;;5.53;57.64
50087;BME280;35967;50.718;7.050;2023-04-05T23:37:02;101032.84;;;5.78;55.28
50087;BME280;35967;50.718;7.050;2023-04-05T23:47:06;101035.31;;;5.53;56.30
50087;BME280;35967;50.718;7.050;2023-04-05T23:57:10;101019.31;;;6.02;53.81
